Time;durP1;ratioP1;P1;durP2;ratioP2;P2;SDS_P1;SDS_P2;PMS_P1;PMS_P2;Temp;Humidity;BMP_temperature;BMP_pressure;BME280_temperature;BME280_humidity;BME280_pressure;Samples;Min_cycle;Max_cycle;Signal;HPM_P1;HPM_P2
2022/12/18 00:00:08;;;;;;;28.35;14.27;;;-1.10;99.90;;;;;;5051406;28;20240;-76
2022/12/18 00:02:35;;;;;;;27.90;15.85;;;-1.10;99.90;;;;;;5052021;28;20267;-76
2022/12/18 00:05:02;;;;;;;32.35;14.95;;;-1.10;99.90;;;;;;5043951;28;20278;-76
2022/12/18 00:07:29;;;;;;;31.02;15.60;;;-1.10;99.90;;;;;;5041101;28;20314;-80
2022/12/18 00:09:56;;;;;;;25.25;16.08;;;-1.20;99.90;;;;;;5053452;28;20307;-80
2022/12/18 00:12:23;;;;;;;31.95;15.50;;;-1.30;99.90;;;;;;5049911;28;20707;-77
2022/12/18 00:14:50;;;;;;;32.10;14.30;;;-1.20;99.90;;;;;;5041080;28;20221;-76
2022/12/18 00:17:18;;;;;;;30.40;17.10;;;-1.20;99.90;;;;;;5049047;28;20221;-76
2022/12/18 00:19:45;;;;;;;33.22;17.80;;;-1.30;99.90;;;;;;5053911;28;20224;-77
2022/12/18 00:22:12;;;;;;;32.65;18.25;;;-1.30;99.90;;;;;;5040109;28;20244;-76
2022/12/18 00:24:41;;;;;;;33.25;16.00;;;-1.30;99.90;;;;;;5044432;28;20225;-79
2022/12/18 00:27:11;;;;;;;28.85;15.73;;;-1.30;99.90;;;;;;5048485;28;20303;-77
2022/12/18 00:29:41;;;;;;;30.20;15.65;;;-1.30;99.90;;;;;;5039147;28;20229;-79
2022/12/18 00:32:08;;;;;;;34.65;18.38;;;-1.30;99.90;;;;;;5051043;28;20232;-77
2022/12/18 00:34:37;;;;;;;24.92;15.32;;;-1.30;99.90;;;;;;5044893;28;20240;-79
2022/12/18 00:37:06;;;;;;;29.60;15.55;;;-1.30;99.90;;;;;;5032706;28;20255;-77
2022/12/18 00:39:33;;;;;;;32.13;16.05;;;-1.40;99.90;;;;;;5057320;28;20239;-76
2022/12/18 00:44:44;;;;;;;30.02;16.58;;;-1.50;99.90;;;;;;5066674;28;20271;-79
2022/12/18 00:47:11;;;;;;;29.98;15.55;;;-1.60;99.90;;;;;;5072921;28;20258;-79
2022/12/18 00:49:40;;;;;;;30.42;19.35;;;-1.70;99.90;;;;;;5060279;28;20303;-79
2022/12/18 00:52:07;;;;;;;29.75;16.42;;;-1.70;99.90;;;;;;5071514;28;20703;-76
2022/12/18 00:54:34;;;;;;;31.25;18.40;;;-1.70;99.90;;;;;;5063208;28;20615;-79
2022/12/18 00:57:02;;;;;;;39.85;20.70;;;-1.70;99.90;;;;;;5066504;28;20228;-77
2022/12/18 00:59:29;;;;;;;37.58;19.05;;;-1.60;99.90;;;;;;5070633;28;20231;-79
2022/12/18 01:01:56;;;;;;;27.40;16.30;;;-1.50;99.90;;;;;;5071310;28;20556;-79
2022/12/18 01:04:24;;;;;;;36.63;19.73;;;-1.50;99.90;;;;;;5059876;28;20285;-76
2022/12/18 01:06:52;;;;;;;33.13;19.40;;;-1.50;99.90;;;;;;5061592;28;20232;-76
2022/12/18 01:09:21;;;;;;;32.28;17.85;;;-1.40;99.90;;;;;;5071018;28;20417;-76
2022/12/18 01:11:51;;;;;;;33.47;17.58;;;-1.50;99.90;;;;;;5073493;28;20282;-79
2022/12/18 01:14:18;;;;;;;39.38;17.42;;;-1.50;99.90;;;;;;5059175;28;20311;-76
2022/12/18 01:16:45;;;;;;;30.50;17.17;;;-1.50;99.90;;;;;;5067112;28;20672;-79
2022/12/18 01:19:12;;;;;;;31.30;16.98;;;-1.50;99.90;;;;;;5072249;28;20236;-77
2022/12/18 01:21:39;;;;;;;31.23;15.90;;;-1.50;99.90;;;;;;5060145;28;20224;-79
2022/12/18 01:24:07;;;;;;;26.02;16.88;;;-1.50;99.90;;;;;;5071551;28;20311;-79
2022/12/18 01:26:35;;;;;;;31.45;17.38;;;-1.50;99.90;;;;;;5065117;28;20293;-77
2022/12/18 01:29:02;;;;;;;30.80;16.73;;;-1.50;99.90;;;;;;5054740;28;20229;-77
2022/12/18 01:31:34;;;;;;;38.53;19.08;;;-1.50;99.90;;;;;;5053457;28;20221;-77
2022/12/18 01:34:04;;;;;;;30.05;16.55;;;-1.50;99.90;;;;;;5053605;28;20252;-77
2022/12/18 01:36:33;;;;;;;30.10;17.77;;;-1.50;99.90;;;;;;5071418;28;20303;-80
2022/12/18 01:39:01;;;;;;;28.33;16.52;;;-1.50;99.90;;;;;;5065354;28;20228;-79
2022/12/18 01:42:01;;;;;;;27.52;17.10;;;-1.50;99.90;;;;;;5067387;28;20286;-76
2022/12/18 01:44:55;;;;;;;35.03;16.70;;;-1.50;99.90;;;;;;5066731;28;20224;-79
2022/12/18 01:47:27;;;;;;;36.60;18.13;;;-1.60;99.90;;;;;;5048483;28;20216;-78
2022/12/18 01:49:55;;;;;;;31.83;16.20;;;-1.60;99.90;;;;;;5050170;28;20623;-77
2022/12/18 01:52:23;;;;;;;30.60;16.27;;;-1.70;99.90;;;;;;5042119;28;20300;-80
2022/12/18 01:54:53;;;;;;;30.75;16.50;;;-1.70;99.90;;;;;;5050241;28;20255;-79
2022/12/18 01:57:22;;;;;;;22.73;14.93;;;-1.70;99.90;;;;;;5042385;28;20229;-80
2022/12/18 01:59:52;;;;;;;33.40;16.38;;;-1.70;99.90;;;;;;5046258;28;20619;-78
2022/12/18 02:02:20;;;;;;;36.15;17.30;;;-1.80;99.90;;;;;;5042936;28;20642;-79
2022/12/18 02:04:48;;;;;;;33.95;17.83;;;-1.80;99.90;;;;;;5039205;28;20225;-77
2022/12/18 02:07:21;;;;;;;35.45;19.40;;;-1.80;99.90;;;;;;5041756;28;20316;-76
2022/12/18 02:09:51;;;;;;;33.10;17.33;;;-1.70;99.90;;;;;;5045828;28;20221;-76
2022/12/18 02:12:23;;;;;;;30.67;15.73;;;-1.70;99.90;;;;;;5050040;28;20311;-76
2022/12/18 02:14:59;;;;;;;30.55;16.08;;;-1.70;99.90;;;;;;5038752;28;20307;-77
2022/12/18 02:17:32;;;;;;;31.70;15.68;;;-1.70;99.90;;;;;;5038133;28;20245;-77
2022/12/18 02:20:11;;;;;;;34.75;18.77;;;-1.80;99.90;;;;;;5044400;28;20619;-77
2022/12/18 02:22:49;;;;;;;27.23;15.80;;;-1.80;99.90;;;;;;5045790;28;20252;-80
2022/12/18 02:25:30;;;;;;;25.77;15.43;;;-1.80;99.90;;;;;;5063131;28;20297;-80
2022/12/18 02:28:01;;;;;;;26.55;16.05;;;-1.80;99.90;;;;;;5052480;28;20622;-79
2022/12/18 02:30:32;;;;;;;35.45;17.35;;;-1.80;99.90;;;;;;5071931;28;20228;-79
2022/12/18 02:33:01;;;;;;;32.97;16.48;;;-1.80;99.90;;;;;;5058196;28;20224;-79
2022/12/18 02:35:31;;;;;;;39.22;19.27;;;-1.80;99.90;;;;;;5070290;28;20224;-79
2022/12/18 02:37:59;;;;;;;35.15;16.95;;;-1.90;99.90;;;;;;5058754;28;20229;-80
2022/12/18 02:40:29;;;;;;;33.65;17.95;;;-1.90;99.90;;;;;;5068101;28;20228;-77
2022/12/18 02:42:56;;;;;;;34.72;17.60;;;-1.90;99.90;;;;;;5069353;28;20277;-77
2022/12/18 02:45:24;;;;;;;32.85;15.45;;;-1.90;99.90;;;;;;5064969;28;20755;-77
2022/12/18 02:47:51;;;;;;;29.10;16.10;;;-1.90;99.90;;;;;;5061983;28;20224;-77
2022/12/18 02:50:28;;;;;;;32.83;18.42;;;-1.90;99.90;;;;;;5054841;28;20229;-77
2022/12/18 02:53:03;;;;;;;30.13;17.85;;;-1.90;99.90;;;;;;5048528;28;20297;-77
2022/12/18 02:55:45;;;;;;;36.25;17.77;;;-1.90;99.90;;;;;;5047199;28;20285;-81
2022/12/18 02:58:18;;;;;;;43.58;21.10;;;-1.90;99.90;;;;;;5059004;28;20227;-77
2022/12/18 03:00:54;;;;;;;36.25;19.42;;;-1.90;99.90;;;;;;5057057;28;20447;-80
2022/12/18 03:03:29;;;;;;;40.65;19.65;;;-1.90;99.90;;;;;;5054898;28;20304;-77
2022/12/18 03:06:00;;;;;;;33.70;17.75;;;-1.80;99.90;;;;;;5046706;28;20281;-80
2022/12/18 03:08:30;;;;;;;43.45;18.35;;;-1.70;99.90;;;;;;5057500;28;20236;-80
2022/12/18 03:11:05;;;;;;;38.60;18.38;;;-1.70;99.90;;;;;;5057588;28;20291;-80
2022/12/18 03:13:37;;;;;;;35.97;19.83;;;-1.60;99.90;;;;;;5057280;28;20279;-77
2022/12/18 03:16:08;;;;;;;37.63;19.90;;;-1.60;99.90;;;;;;5066981;28;20303;-80
2022/12/18 03:18:38;;;;;;;41.47;19.80;;;-1.60;99.90;;;;;;5066635;28;20251;-80
2022/12/18 03:21:08;;;;;;;48.92;22.80;;;-1.60;99.90;;;;;;5071251;28;20304;-77
2022/12/18 03:23:41;;;;;;;45.08;21.92;;;-1.50;99.90;;;;;;5070279;28;20231;-77
2022/12/18 03:26:13;;;;;;;47.33;21.92;;;-1.40;99.90;;;;;;5062704;28;20289;-77
2022/12/18 03:28:45;;;;;;;44.38;22.67;;;-1.40;99.90;;;;;;5075368;28;20239;-79
2022/12/18 03:31:15;;;;;;;49.78;22.92;;;-1.40;99.90;;;;;;5074249;28;20311;-78
2022/12/18 03:33:47;;;;;;;41.55;21.02;;;-1.30;99.90;;;;;;5073300;28;20389;-77
2022/12/18 03:36:14;;;;;;;42.13;23.17;;;-1.30;99.90;;;;;;5075367;28;20300;-80
2022/12/18 03:38:42;;;;;;;45.25;24.27;;;-1.30;99.90;;;;;;5066416;28;20281;-77
2022/12/18 03:41:19;;;;;;;47.13;22.23;;;-1.30;99.90;;;;;;5068047;28;20586;-80
2022/12/18 03:43:53;;;;;;;49.97;23.92;;;-1.20;99.90;;;;;;5072633;28;20224;-78
2022/12/18 03:46:29;;;;;;;49.60;24.30;;;-1.20;99.90;;;;;;5075393;28;20278;-78
2022/12/18 03:49:03;;;;;;;47.92;23.73;;;-1.20;99.90;;;;;;5049416;28;20322;-79
2022/12/18 03:51:38;;;;;;;52.58;25.73;;;-1.30;99.90;;;;;;5050543;28;20233;-79
2022/12/18 03:54:07;;;;;;;39.97;20.50;;;-1.30;99.90;;;;;;5052480;28;20220;-76
2022/12/18 03:56:41;;;;;;;53.10;26.98;;;-1.40;99.90;;;;;;5052385;28;20252;-78
2022/12/18 03:59:10;;;;;;;52.45;26.48;;;-1.30;99.90;;;;;;5060725;28;20248;-80
2022/12/18 04:01:43;;;;;;;46.33;23.90;;;-1.40;99.90;;;;;;5063415;28;20220;-79
2022/12/18 04:04:12;;;;;;;44.13;23.27;;;-1.40;99.90;;;;;;5054948;28;20221;-79
2022/12/18 04:07:05;;;;;;;50.13;22.77;;;-1.40;99.90;;;;;;5054088;28;20228;-80
2022/12/18 04:09:35;;;;;;;41.78;21.50;;;-1.40;99.90;;;;;;5049211;28;20221;-79
2022/12/18 04:12:02;;;;;;;43.80;23.83;;;-1.50;99.90;;;;;;5044656;28;20260;-79
2022/12/18 04:14:29;;;;;;;46.50;23.40;;;-1.50;99.90;;;;;;5043307;28;20237;-76
2022/12/18 04:16:58;;;;;;;51.70;25.15;;;-1.60;99.90;;;;;;5048409;28;20221;-75
2022/12/18 04:19:25;;;;;;;56.08;27.30;;;-1.70;99.90;;;;;;5046240;28;20266;-78
2022/12/18 04:21:52;;;;;;;50.67;25.55;;;-1.70;99.90;;;;;;5054596;28;20220;-78
2022/12/18 04:24:19;;;;;;;54.38;26.08;;;-1.70;99.90;;;;;;5051049;28;20309;-76
2022/12/18 04:26:46;;;;;;;47.55;21.90;;;-1.70;99.90;;;;;;5047664;28;20225;-76
2022/12/18 04:29:13;;;;;;;55.17;25.63;;;-1.70;99.90;;;;;;5055045;28;20229;-78
2022/12/18 04:31:40;;;;;;;55.03;25.73;;;-1.60;99.90;;;;;;5052695;28;20228;-78
2022/12/18 04:34:09;;;;;;;49.72;23.58;;;-1.70;99.90;;;;;;5074939;28;20232;-79
2022/12/18 04:36:36;;;;;;;37.63;23.10;;;-1.70;99.90;;;;;;5059370;28;20699;-79
2022/12/18 04:39:03;;;;;;;37.22;21.83;;;-1.80;99.90;;;;;;5066771;28;20236;-77
2022/12/18 04:41:33;;;;;;;43.75;23.33;;;-1.70;99.90;;;;;;5060336;28;20550;-76
2022/12/18 04:44:00;;;;;;;42.47;19.52;;;-1.70;99.90;;;;;;5043449;28;20220;-79
2022/12/18 04:46:26;;;;;;;42.22;22.45;;;-1.70;99.90;;;;;;5072533;28;20324;-79
2022/12/18 04:48:53;;;;;;;46.72;20.88;;;-1.70;99.90;;;;;;5047774;28;20221;-79
2022/12/18 04:51:22;;;;;;;38.10;19.25;;;-1.70;99.90;;;;;;5053970;28;20228;-79
2022/12/18 04:53:49;;;;;;;38.22;21.10;;;-1.70;99.90;;;;;;5052800;28;20324;-79
2022/12/18 04:56:16;;;;;;;38.97;21.20;;;-1.80;99.90;;;;;;5053730;28;20233;-76
2022/12/18 04:58:45;;;;;;;33.17;18.70;;;-1.80;99.90;;;;;;5066007;28;20231;-77
2022/12/18 05:01:13;;;;;;;33.22;18.88;;;-1.80;99.90;;;;;;5061396;28;20235;-78
2022/12/18 05:03:40;;;;;;;37.65;18.17;;;-1.80;99.90;;;;;;5059271;28;20221;-78
2022/12/18 05:06:08;;;;;;;38.03;19.65;;;-1.90;99.90;;;;;;5065266;28;20228;-79
2022/12/18 05:08:37;;;;;;;36.67;18.65;;;-2.00;99.90;;;;;;5066806;28;20636;-79
2022/12/18 05:11:05;;;;;;;38.10;19.23;;;-2.00;99.90;;;;;;5061721;28;20299;-79
2022/12/18 05:13:33;;;;;;;35.33;18.48;;;-2.00;99.90;;;;;;5059324;28;20255;-79
2022/12/18 05:16:01;;;;;;;40.47;18.77;;;-2.00;99.90;;;;;;5064818;28;20228;-79
2022/12/18 05:18:28;;;;;;;38.90;19.30;;;-2.10;99.90;;;;;;5066064;28;20224;-79
2022/12/18 05:20:57;;;;;;;45.15;19.55;;;-2.10;99.90;;;;;;5061623;28;20223;-79
2022/12/18 05:23:25;;;;;;;44.50;18.75;;;-2.20;99.90;;;;;;5061091;28;20285;-79
2022/12/18 05:25:55;;;;;;;35.92;20.05;;;-2.20;99.90;;;;;;5063540;28;20688;-77
2022/12/18 05:28:23;;;;;;;39.97;19.10;;;-2.30;99.90;;;;;;5068916;28;20306;-76
2022/12/18 05:30:53;;;;;;;39.83;20.15;;;-2.30;99.90;;;;;;5070567;28;20238;-76
2022/12/18 05:33:21;;;;;;;40.53;20.20;;;-2.30;99.90;;;;;;5051126;28;20267;-79
2022/12/18 05:35:56;;;;;;;39.22;19.02;;;-2.30;99.90;;;;;;5053320;28;20224;-79
2022/12/18 05:38:27;;;;;;;31.67;17.65;;;-2.30;99.90;;;;;;5053907;28;20219;-76
2022/12/18 05:40:57;;;;;;;36.45;17.58;;;-2.20;99.90;;;;;;5056535;28;20299;-76
2022/12/18 05:43:25;;;;;;;38.67;19.45;;;-2.10;99.90;;;;;;5053036;28;20573;-76
2022/12/18 05:45:52;;;;;;;30.42;17.73;;;-2.20;99.90;;;;;;5052803;28;20691;-78
2022/12/18 05:48:20;;;;;;;35.78;16.95;;;-2.20;99.90;;;;;;5052616;28;20236;-76
2022/12/18 05:50:49;;;;;;;29.52;18.77;;;-2.20;99.90;;;;;;5053102;28;20232;-77
2022/12/18 05:53:18;;;;;;;33.47;18.17;;;-2.10;99.90;;;;;;5052232;28;20228;-77
2022/12/18 05:55:45;;;;;;;34.00;15.88;;;-2.10;99.90;;;;;;5052845;28;20248;-77
2022/12/18 05:58:14;;;;;;;34.03;16.15;;;-2.00;99.90;;;;;;5052226;28;20256;-77
2022/12/18 06:00:45;;;;;;;26.92;16.42;;;-2.00;99.90;;;;;;5053056;28;20286;-76
2022/12/18 06:03:14;;;;;;;34.35;20.42;;;-2.00;99.90;;;;;;5052652;28;20286;-77
2022/12/18 06:05:43;;;;;;;36.30;19.23;;;-1.90;99.90;;;;;;5053770;28;20282;-80
2022/12/18 06:08:10;;;;;;;37.20;17.95;;;-1.90;99.90;;;;;;5044851;28;20559;-78
2022/12/18 06:10:38;;;;;;;34.42;18.27;;;-1.90;99.90;;;;;;5053795;28;20700;-76
2022/12/18 06:13:05;;;;;;;37.47;19.75;;;-1.90;99.90;;;;;;5054611;28;20224;-77
2022/12/18 06:15:37;;;;;;;43.30;23.48;;;-2.00;99.90;;;;;;5054186;28;20255;-78
2022/12/18 06:18:05;;;;;;;43.70;23.02;;;-2.00;99.90;;;;;;5054931;28;20229;-78
2022/12/18 06:20:32;;;;;;;39.58;21.00;;;-2.00;99.90;;;;;;5053359;28;20286;-79
2022/12/18 06:22:59;;;;;;;37.95;18.60;;;-2.00;99.90;;;;;;5055889;28;20217;-78
2022/12/18 06:25:26;;;;;;;38.60;20.75;;;-2.00;99.90;;;;;;5056709;28;20686;-78
2022/12/18 06:27:53;;;;;;;41.28;20.70;;;-2.00;99.90;;;;;;5056500;28;20232;-76
2022/12/18 06:30:20;;;;;;;40.78;21.73;;;-2.10;99.90;;;;;;5053629;28;20275;-76
2022/12/18 06:32:49;;;;;;;35.50;20.38;;;-2.10;99.90;;;;;;5055915;28;20228;-76
2022/12/18 06:35:22;;;;;;;43.28;19.27;;;-2.00;99.90;;;;;;5056749;28;20232;-78
2022/12/18 06:37:49;;;;;;;41.95;19.08;;;-2.00;99.90;;;;;;5052095;28;20243;-76
2022/12/18 06:40:16;;;;;;;38.55;19.10;;;-2.00;99.90;;;;;;5052576;28;20232;-78
2022/12/18 06:42:43;;;;;;;35.30;20.38;;;-2.00;99.90;;;;;;5053104;28;20232;-78
2022/12/18 06:45:14;;;;;;;38.45;20.38;;;-2.00;99.90;;;;;;5052313;28;20572;-76
2022/12/18 06:47:42;;;;;;;38.40;22.33;;;-2.00;99.90;;;;;;5052280;28;20533;-79
2022/12/18 06:50:11;;;;;;;36.63;19.90;;;-1.90;99.90;;;;;;5052028;28;20661;-76
2022/12/18 06:52:38;;;;;;;38.95;19.85;;;-2.00;99.90;;;;;;5051948;28;20220;-76
2022/12/18 06:55:09;;;;;;;36.40;20.42;;;-1.90;99.90;;;;;;5052347;28;20584;-79
2022/12/18 06:57:37;;;;;;;42.10;21.02;;;-2.00;99.90;;;;;;5050862;28;20274;-79
2022/12/18 07:00:06;;;;;;;39.08;20.42;;;-2.00;99.90;;;;;;5052522;28;20233;-79
2022/12/18 07:02:33;;;;;;;41.20;22.30;;;-1.90;99.90;;;;;;5051518;28;20225;-79
2022/12/18 07:05:00;;;;;;;41.88;21.52;;;-1.90;99.90;;;;;;5052342;28;20319;-76
2022/12/18 07:07:28;;;;;;;39.90;18.70;;;-1.90;99.90;;;;;;5051269;28;20220;-79
2022/12/18 07:09:55;;;;;;;37.95;20.10;;;-1.80;99.90;;;;;;5051540;28;20257;-77
2022/12/18 07:12:22;;;;;;;44.67;22.13;;;-1.80;99.90;;;;;;5051080;28;20274;-79
2022/12/18 07:14:49;;;;;;;43.40;20.83;;;-1.70;99.90;;;;;;5051863;28;20609;-79
2022/12/18 07:17:18;;;;;;;38.70;19.70;;;-1.80;99.90;;;;;;5051933;28;20294;-79
2022/12/18 07:19:46;;;;;;;40.03;21.08;;;-1.80;99.90;;;;;;5051278;28;20225;-76
2022/12/18 07:22:12;;;;;;;39.92;21.95;;;-1.80;99.90;;;;;;5051470;28;20244;-76
2022/12/18 07:24:41;;;;;;;36.72;21.15;;;-1.80;99.90;;;;;;5052928;28;20723;-79
2022/12/18 07:27:08;;;;;;;37.15;19.63;;;-1.80;99.90;;;;;;5054556;28;20575;-79
2022/12/18 07:29:35;;;;;;;48.75;20.27;;;-1.90;99.90;;;;;;5055260;28;20224;-76
2022/12/18 07:32:03;;;;;;;37.25;20.95;;;-1.90;99.90;;;;;;5055460;28;20248;-79
2022/12/18 07:34:30;;;;;;;40.03;20.00;;;-1.90;99.90;;;;;;5054934;28;20221;-79
2022/12/18 07:36:57;;;;;;;30.35;18.88;;;-1.90;99.90;;;;;;5055689;28;20255;-81
2022/12/18 07:39:25;;;;;;;37.40;19.48;;;-1.90;99.90;;;;;;5054575;28;20225;-80
2022/12/18 07:44:34;;;;;;;33.38;19.33;;;-1.80;99.90;;;;;;5054529;28;20239;-78
2022/12/18 07:47:01;;;;;;;44.30;19.35;;;-1.80;99.90;;;;;;5055255;28;20702;-77
2022/12/18 07:49:29;;;;;;;34.83;18.60;;;-1.80;99.90;;;;;;5054913;28;20232;-77
2022/12/18 07:51:56;;;;;;;41.70;21.83;;;-1.70;99.90;;;;;;5055052;28;20710;-77
2022/12/18 07:54:23;;;;;;;36.70;19.10;;;-1.60;99.90;;;;;;5054853;28;20312;-77
2022/12/18 07:56:50;;;;;;;40.95;21.88;;;-1.60;99.90;;;;;;5054681;28;20812;-77
2022/12/18 07:59:18;;;;;;;41.58;21.30;;;-1.60;99.90;;;;;;5055039;28;20719;-77
2022/12/18 08:01:46;;;;;;;44.58;21.55;;;-1.70;99.90;;;;;;5054672;28;20279;-77
2022/12/18 08:04:18;;;;;;;39.53;22.25;;;-1.80;99.90;;;;;;5054972;28;20258;-80
2022/12/18 08:06:45;;;;;;;39.58;20.67;;;-1.70;99.90;;;;;;5054406;28;20229;-80
2022/12/18 08:09:12;;;;;;;37.45;17.48;;;-1.80;99.90;;;;;;5050647;28;20276;-77
2022/12/18 08:11:39;;;;;;;42.88;22.10;;;-1.70;99.90;;;;;;5063729;28;20224;-78
2022/12/18 08:14:06;;;;;;;41.58;21.45;;;-1.80;99.90;;;;;;5054782;28;20304;-80
2022/12/18 08:16:35;;;;;;;41.83;20.52;;;-1.80;99.90;;;;;;5054851;28;20231;-77
2022/12/18 08:19:02;;;;;;;36.97;19.10;;;-1.80;99.90;;;;;;5056005;28;20307;-80
2022/12/18 08:21:31;;;;;;;36.72;20.15;;;-1.80;99.90;;;;;;5056229;28;20224;-77
2022/12/18 08:23:59;;;;;;;42.75;21.10;;;-1.80;99.90;;;;;;5056766;28;20326;-80
2022/12/18 08:26:29;;;;;;;44.40;20.90;;;-1.80;99.90;;;;;;5055714;28;20229;-80
2022/12/18 08:29:03;;;;;;;39.72;19.77;;;-1.80;99.90;;;;;;5054942;28;20225;-79
2022/12/18 08:31:32;;;;;;;38.38;20.67;;;-1.70;99.90;;;;;;5054292;28;20235;-77
2022/12/18 08:34:01;;;;;;;47.75;19.40;;;-1.70;99.90;;;;;;5052594;28;20241;-76
2022/12/18 08:36:28;;;;;;;39.03;20.05;;;-1.70;99.90;;;;;;5053075;28;20229;-76
2022/12/18 08:38:55;;;;;;;39.00;21.35;;;-1.90;99.90;;;;;;5052852;28;20676;-76
2022/12/18 08:41:22;;;;;;;34.50;20.45;;;-1.90;99.90;;;;;;5054235;28;20304;-76
2022/12/18 08:46:37;;;;;;;35.60;19.65;;;-1.80;99.90;;;;;;5053824;28;20270;-79
2022/12/18 08:49:07;;;;;;;32.38;18.50;;;-1.80;99.90;;;;;;5044568;28;20228;-76
2022/12/18 08:51:34;;;;;;;37.75;19.98;;;-1.70;99.90;;;;;;5053680;28;20322;-76
2022/12/18 08:54:02;;;;;;;32.55;18.50;;;-1.70;99.90;;;;;;5053749;28;24828;-76
2022/12/18 08:56:31;;;;;;;40.13;20.85;;;-1.70;99.90;;;;;;5053775;28;20298;-76
2022/12/18 08:59:02;;;;;;;37.25;19.38;;;-1.60;99.90;;;;;;5052713;28;20311;-79
2022/12/18 09:01:29;;;;;;;36.22;19.58;;;-1.60;99.90;;;;;;5053405;28;20307;-79
2022/12/18 09:03:56;;;;;;;30.85;18.15;;;-1.60;99.90;;;;;;5053390;28;20285;-77
2022/12/18 09:06:26;;;;;;;44.20;19.27;;;-1.60;99.90;;;;;;5053900;28;20607;-76
2022/12/18 09:08:53;;;;;;;40.75;19.40;;;-1.60;99.90;;;;;;5053130;28;20217;-76
2022/12/18 09:11:23;;;;;;;37.20;18.83;;;-1.50;99.90;;;;;;5053907;28;20661;-78
2022/12/18 09:13:52;;;;;;;35.90;18.50;;;-1.50;99.90;;;;;;5052529;28;20262;-76
2022/12/18 09:16:19;;;;;;;35.45;18.20;;;-1.50;99.90;;;;;;5053337;28;20308;-79
2022/12/18 09:18:47;;;;;;;34.17;18.13;;;-1.50;99.90;;;;;;5052986;28;20244;-77
2022/12/18 09:21:16;;;;;;;40.25;20.70;;;-1.50;99.90;;;;;;5053434;28;20282;-77
2022/12/18 09:23:44;;;;;;;34.50;19.10;;;-1.40;99.90;;;;;;5053410;28;20660;-78
2022/12/18 09:26:12;;;;;;;35.92;21.15;;;-1.40;99.90;;;;;;5052723;28;20536;-77
2022/12/18 09:28:39;;;;;;;35.35;19.80;;;-1.40;99.90;;;;;;5053197;28;20241;-78
2022/12/18 09:31:13;;;;;;;35.03;16.92;;;-1.30;99.90;;;;;;5052918;28;20224;-80
2022/12/18 09:33:40;;;;;;;30.95;17.30;;;-1.20;99.90;;;;;;5053222;28;20354;-78
2022/12/18 09:36:10;;;;;;;34.85;18.10;;;-1.30;99.90;;;;;;5052926;28;20232;-80
2022/12/18 09:38:38;;;;;;;38.30;19.88;;;-1.20;99.90;;;;;;5053244;28;20740;-80
2022/12/18 09:41:35;;;;;;;33.00;18.80;;;-1.30;99.90;;;;;;5053177;28;20232;-80
2022/12/18 09:44:06;;;;;;;32.88;17.80;;;-1.20;99.90;;;;;;5052845;28;20248;-80
2022/12/18 09:46:37;;;;;;;31.02;17.13;;;-1.20;99.90;;;;;;5053205;28;20275;-80
2022/12/18 09:49:12;;;;;;;30.50;16.63;;;-1.30;99.90;;;;;;5052003;28;20247;-80
2022/12/18 09:51:45;;;;;;;28.70;18.13;;;-1.30;99.90;;;;;;5052858;28;20247;-80
2022/12/18 09:54:17;;;;;;;28.63;16.63;;;-1.20;99.90;;;;;;5052493;28;20253;-80
2022/12/18 09:56:45;;;;;;;37.13;18.55;;;-1.20;99.90;;;;;;5052927;28;20235;-80
2022/12/18 09:59:22;;;;;;;28.40;17.30;;;-1.20;99.90;;;;;;5052297;28;20398;-77
2022/12/18 10:01:49;;;;;;;38.85;19.33;;;-1.10;99.90;;;;;;5052515;28;20299;-77
2022/12/18 10:04:16;;;;;;;36.80;20.15;;;-1.10;99.90;;;;;;5052038;28;20652;-78
2022/12/18 10:06:49;;;;;;;35.20;19.10;;;-1.10;99.90;;;;;;5052749;28;20732;-80
2022/12/18 10:09:26;;;;;;;38.97;23.05;;;-1.20;99.90;;;;;;5052159;28;20274;-80
2022/12/18 10:12:04;;;;;;;34.17;17.63;;;-1.30;99.90;;;;;;5051690;28;20684;-78
2022/12/18 10:14:38;;;;;;;38.17;18.85;;;-1.20;99.90;;;;;;5052625;28;20224;-79
2022/12/18 10:17:17;;;;;;;33.50;18.17;;;-1.10;99.90;;;;;;5055773;28;20224;-80
2022/12/18 10:19:49;;;;;;;37.05;18.55;;;-1.10;99.90;;;;;;5050413;28;20224;-79
2022/12/18 10:22:40;;;;;;;32.50;16.35;;;-1.10;99.90;;;;;;5071560;28;20219;-79
2022/12/18 10:25:19;;;;;;;34.20;18.88;;;-1.00;99.90;;;;;;5071656;28;20222;-79
2022/12/18 10:27:48;;;;;;;44.10;22.83;;;-0.90;99.90;;;;;;5072324;28;20223;-79
2022/12/18 10:30:23;;;;;;;36.38;19.05;;;-1.00;99.90;;;;;;5070221;28;20288;-76
2022/12/18 10:32:50;;;;;;;31.88;16.98;;;-0.90;99.90;;;;;;5072317;28;20219;-77
2022/12/18 10:35:23;;;;;;;31.48;18.95;;;-0.90;99.90;;;;;;5066558;28;20595;-77
2022/12/18 10:38:06;;;;;;;29.63;17.85;;;-0.80;99.90;;;;;;5068806;28;20282;-76
2022/12/18 10:40:48;;;;;;;38.92;17.70;;;-0.80;99.90;;;;;;5068979;28;20307;-79
2022/12/18 10:43:20;;;;;;;34.67;18.08;;;-0.70;99.90;;;;;;5054554;28;20227;-79
2022/12/18 10:46:15;;;;;;;36.95;19.10;;;-0.70;99.90;;;;;;5063337;28;20557;-80
2022/12/18 10:48:52;;;;;;;35.33;18.73;;;-0.60;99.90;;;;;;5066293;28;20695;-80
2022/12/18 10:51:25;;;;;;;36.42;19.10;;;-0.50;99.90;;;;;;5068616;28;20307;-79
2022/12/18 10:53:56;;;;;;;40.20;20.13;;;-0.50;99.90;;;;;;5071325;28;20235;-80
2022/12/18 10:56:26;;;;;;;37.63;20.83;;;-0.70;99.90;;;;;;5058484;28;20823;-80
2022/12/18 11:02:44;;;;;;;35.30;17.80;;;-0.70;99.90;;;;;;4927505;28;20226;-80
2022/12/18 11:05:29;;;;;;;40.58;21.02;;;-0.70;99.90;;;;;;5033564;28;20367;-80
2022/12/18 11:07:56;;;;;;;43.30;21.52;;;-0.70;99.90;;;;;;5061885;28;20220;-80
2022/12/18 11:10:31;;;;;;;39.25;21.95;;;-0.70;99.90;;;;;;5075905;28;20310;-77
2022/12/18 11:13:11;;;;;;;44.15;22.27;;;-0.60;99.90;;;;;;5051383;28;20222;-77
2022/12/18 11:15:41;;;;;;;40.30;22.05;;;-0.60;99.90;;;;;;5039899;28;20711;-78
2022/12/18 11:18:19;;;;;;;37.47;20.15;;;-0.50;99.90;;;;;;5045286;28;20224;-80
2022/12/18 11:20:52;;;;;;;35.72;21.92;;;-0.50;99.90;;;;;;5036622;28;20233;-80
2022/12/18 11:23:23;;;;;;;35.72;22.70;;;-0.40;99.90;;;;;;5036054;28;20308;-80
2022/12/18 11:25:56;;;;;;;35.90;22.58;;;-0.40;99.90;;;;;;5033592;28;20739;-80
2022/12/18 11:28:30;;;;;;;44.08;20.30;;;-0.40;99.90;;;;;;5035962;28;20333;-78
2022/12/18 11:31:16;;;;;;;38.55;21.65;;;-0.30;99.90;;;;;;5034008;28;20226;-80
2022/12/18 11:33:48;;;;;;;41.80;19.52;;;-0.30;99.90;;;;;;5037340;28;20336;-79
2022/12/18 11:36:16;;;;;;;35.45;18.52;;;-0.20;99.90;;;;;;5053512;28;20235;-79
2022/12/18 11:38:47;;;;;;;37.72;20.20;;;-0.20;99.90;;;;;;5031952;28;20304;-77
2022/12/18 11:42:08;;;;;;;35.75;20.27;;;-0.10;99.90;;;;;;5055488;28;20229;-79
2022/12/18 11:44:20;;;;;;;37.47;21.95;;;-0.10;99.90;;;;;;5043692;28;20232;-77
2022/12/18 11:46:52;;;;;;;35.20;18.40;;;0.00;99.90;;;;;;5039059;28;20225;-80
2022/12/18 11:49:26;;;;;;;40.55;21.27;;;0.00;99.90;;;;;;5043744;28;20248;-80
2022/12/18 11:51:59;;;;;;;36.72;18.85;;;0.00;99.90;;;;;;5054649;28;20308;-79
2022/12/18 11:54:27;;;;;;;35.88;19.38;;;0.10;99.90;;;;;;5054692;28;20563;-80
2022/12/18 11:57:03;;;;;;;41.92;21.05;;;0.00;99.90;;;;;;5054612;28;20304;-79
2022/12/18 11:59:42;;;;;;;29.75;18.10;;;0.00;99.90;;;;;;5054374;28;20247;-79
2022/12/18 12:02:26;;;;;;;32.80;17.70;;;-0.10;99.90;;;;;;5055571;28;20243;-79
2022/12/18 12:05:17;;;;;;;36.10;17.67;;;-0.20;99.90;;;;;;5053240;28;20320;-76
2022/12/18 12:07:55;;;;;;;30.85;16.77;;;-0.20;99.90;;;;;;5056545;28;20307;-76
2022/12/18 12:10:33;;;;;;;32.95;18.67;;;-0.10;99.90;;;;;;5054521;28;20622;-78
2022/12/18 12:13:17;;;;;;;29.85;17.95;;;-0.10;99.90;;;;;;5054018;28;20248;-78
2022/12/18 12:15:52;;;;;;;32.85;18.20;;;-0.20;99.90;;;;;;5054403;28;20228;-79
2022/12/18 12:18:30;;;;;;;35.90;19.45;;;-0.20;99.90;;;;;;5054794;28;20285;-77
2022/12/18 12:21:07;;;;;;;27.17;16.80;;;-0.20;99.90;;;;;;5060153;28;20322;-79
2022/12/18 12:23:44;;;;;;;32.05;18.85;;;-0.20;99.90;;;;;;5054536;28;20236;-77
2022/12/18 12:26:15;;;;;;;32.40;19.10;;;-0.20;99.90;;;;;;5054273;28;20212;-77
2022/12/18 12:29:02;;;;;;;34.05;17.80;;;-0.20;99.90;;;;;;5054776;28;20308;-77
2022/12/18 12:31:47;;;;;;;36.08;20.45;;;-0.20;99.90;;;;;;5054837;28;20391;-79
2022/12/18 12:34:20;;;;;;;33.53;17.90;;;-0.20;99.90;;;;;;5053894;28;20263;-77
2022/12/18 12:37:06;;;;;;;35.50;20.35;;;-0.20;99.90;;;;;;5054102;28;20354;-76
2022/12/18 12:39:36;;;;;;;27.90;16.85;;;-0.20;99.90;;;;;;5054047;28;20290;-80
2022/12/18 12:44:56;;;;;;;31.10;19.25;;;-0.10;99.90;;;;;;5053914;28;20550;-80
2022/12/18 12:47:26;;;;;;;31.35;19.90;;;0.00;99.90;;;;;;5050998;28;20231;-80
2022/12/18 12:49:55;;;;;;;31.58;19.77;;;0.00;99.90;;;;;;5064078;28;20233;-78
2022/12/18 12:52:31;;;;;;;32.65;19.90;;;0.00;99.90;;;;;;5066200;28;20240;-78
2022/12/18 12:55:01;;;;;;;32.60;22.20;;;0.00;99.90;;;;;;5066732;28;20224;-78
2022/12/18 12:57:34;;;;;;;38.60;25.75;;;0.10;99.90;;;;;;5066390;28;20285;-81
2022/12/18 13:00:29;;;;;;;36.08;19.95;;;0.20;99.90;;;;;;5066858;28;20225;-78